createdAt,value
2022-08-26T00:01:51.881Z,7.00
2022-08-26T00:04:19.215Z,6.57
2022-08-26T00:06:46.295Z,8.27
2022-08-26T00:09:16.329Z,6.27
2022-08-26T00:11:44.779Z,6.37
2022-08-26T00:14:13.806Z,6.77
2022-08-26T00:16:47.617Z,7.10
2022-08-26T00:19:17.862Z,6.77
2022-08-26T00:21:46.389Z,7.00
2022-08-26T00:24:15.845Z,6.50
2022-08-26T00:26:42.593Z,5.43
2022-08-26T00:29:09.640Z,6.80
2022-08-26T00:31:37.675Z,5.10
2022-08-26T00:34:05.619Z,7.40
2022-08-26T00:36:32.266Z,6.33
2022-08-26T00:38:59.080Z,5.70
2022-08-26T00:41:25.916Z,7.30
2022-08-26T00:43:52.995Z,5.87
2022-08-26T00:46:28.897Z,6.40
2022-08-26T00:49:04.158Z,6.97
2022-08-26T00:51:46.186Z,6.47
2022-08-26T00:54:15.010Z,6.27
2022-08-26T00:56:57.569Z,6.43
2022-08-26T00:59:27.448Z,6.30
2022-08-26T01:01:54.440Z,6.57
2022-08-26T01:04:23.633Z,6.07
2022-08-26T01:06:54.561Z,6.83
2022-08-26T01:09:21.902Z,5.80
2022-08-26T01:11:51.230Z,6.70
2022-08-26T01:14:20.603Z,6.20
2022-08-26T01:16:48.267Z,6.23
2022-08-26T01:19:37.479Z,6.97
2022-08-26T01:22:12.047Z,5.97
2022-08-26T01:24:40.156Z,6.80
2022-08-26T01:27:09.005Z,6.37
2022-08-26T01:29:38.384Z,6.83
2022-08-26T01:32:08.862Z,6.80
2022-08-26T01:34:37.866Z,6.40
2022-08-26T01:37:13.684Z,6.33
2022-08-26T01:39:43.484Z,7.00
2022-08-26T01:42:14.634Z,7.57
2022-08-26T01:44:47.505Z,6.50
2022-08-26T01:47:16.838Z,6.63
2022-08-26T01:49:45.671Z,6.53
2022-08-26T01:52:16.609Z,6.00
2022-08-26T01:54:43.501Z,6.70
2022-08-26T01:57:15.295Z,6.90
2022-08-26T01:59:42.707Z,6.73
2022-08-26T02:02:09.542Z,6.70
2022-08-26T02:04:41.500Z,7.23
2022-08-26T02:07:10.022Z,7.00
2022-08-26T02:09:41.585Z,6.40
2022-08-26T02:12:10.496Z,6.30
2022-08-26T02:14:43.723Z,6.30
2022-08-26T02:17:11.834Z,7.13
2022-08-26T02:19:45.107Z,6.10
2022-08-26T02:22:19.486Z,6.60
2022-08-26T02:24:58.354Z,6.77
2022-08-26T02:27:35.137Z,6.67
2022-08-26T02:30:17.132Z,6.20
2022-08-26T02:32:44.699Z,6.97
2022-08-26T02:35:18.335Z,7.13
2022-08-26T02:37:47.939Z,5.97
2022-08-26T02:40:18.283Z,5.80
2022-08-26T02:42:45.424Z,6.87
2022-08-26T02:45:12.796Z,6.60
2022-08-26T02:47:39.487Z,5.90
2022-08-26T02:50:06.816Z,6.50
2022-08-26T02:52:34.738Z,6.57
2022-08-26T02:55:01.503Z,7.67
2022-08-26T02:57:29.194Z,7.67
2022-08-26T02:59:55.831Z,5.97
2022-08-26T03:02:23.143Z,5.93
2022-08-26T03:04:57.506Z,6.20
2022-08-26T03:07:27.518Z,6.70
2022-08-26T03:09:54.184Z,6.27
2022-08-26T03:12:20.835Z,6.67
2022-08-26T03:14:48.576Z,6.60
2022-08-26T03:17:16.575Z,6.50
2022-08-26T03:19:43.286Z,7.63
2022-08-26T03:22:10.888Z,6.60
2022-08-26T03:24:37.723Z,6.37
2022-08-26T03:27:05.831Z,7.97
2022-08-26T03:29:52.362Z,7.00
2022-08-26T03:32:20.743Z,7.27
2022-08-26T03:34:47.360Z,7.53
2022-08-26T03:37:14.758Z,7.17
2022-08-26T03:39:41.763Z,6.50
2022-08-26T03:42:08.453Z,6.30
2022-08-26T03:44:40.098Z,7.67
2022-08-26T03:47:09.134Z,7.00
2022-08-26T03:49:36.117Z,6.73
2022-08-26T03:52:03.989Z,7.47
2022-08-26T03:54:30.740Z,7.17
2022-08-26T03:56:57.433Z,6.87
2022-08-26T03:59:24.115Z,6.67
2022-08-26T04:01:51.381Z,7.30
2022-08-26T04:04:18.179Z,7.23
2022-08-26T04:06:50.246Z,7.43
2022-08-26T04:09:21.003Z,7.33
2022-08-26T04:11:50.536Z,6.70
2022-08-26T04:14:20.785Z,7.33
2022-08-26T04:16:48.333Z,7.20
2022-08-26T04:19:16.592Z,8.30
2022-08-26T04:21:45.006Z,7.57
2022-08-26T04:24:13.926Z,8.37
2022-08-26T04:26:42.540Z,7.47
2022-08-26T04:29:17.587Z,7.30
2022-08-26T04:31:45.069Z,7.20
2022-08-26T04:34:11.838Z,7.00
2022-08-26T04:36:41.978Z,8.10
2022-08-26T04:39:12.132Z,8.20
2022-08-26T04:41:39.587Z,7.47
2022-08-26T04:44:07.169Z,6.83
2022-08-26T04:46:34.543Z,6.90
2022-08-26T04:49:01.898Z,8.33
2022-08-26T04:51:28.682Z,7.20
2022-08-26T04:53:59.168Z,7.50
2022-08-26T04:56:32.835Z,7.27
2022-08-26T04:59:01.171Z,7.00
2022-08-26T05:01:31.287Z,7.50
2022-08-26T05:03:58.624Z,9.33
2022-08-26T05:06:26.153Z,7.50
2022-08-26T05:08:54.144Z,8.57
2022-08-26T05:11:21.501Z,7.63
2022-08-26T05:13:48.821Z,7.30
2022-08-26T05:16:17.074Z,7.10
2022-08-26T05:18:45.630Z,8.13
2022-08-26T05:21:18.882Z,8.00
2022-08-26T05:23:46.204Z,7.90
2022-08-26T05:26:13.458Z,7.70
2022-08-26T05:28:43.646Z,7.93
2022-08-26T05:31:23.562Z,7.80
2022-08-26T05:33:50.599Z,8.00
2022-08-26T05:36:20.811Z,9.70
2022-08-26T05:38:48.737Z,8.30
2022-08-26T05:41:34.614Z,9.20
2022-08-26T05:44:06.275Z,9.00
2022-08-26T05:46:34.476Z,8.27
2022-08-26T05:49:02.287Z,8.23
2022-08-26T05:51:30.487Z,8.30
2022-08-26T05:53:58.392Z,7.97
2022-08-26T05:56:27.418Z,7.80
2022-08-26T05:58:55.998Z,7.43
2022-08-26T06:01:27.222Z,8.33
2022-08-26T06:03:57.503Z,9.43
2022-08-26T06:06:30.338Z,9.10
2022-08-26T06:08:59.450Z,8.47
2022-08-26T06:11:27.852Z,7.87
2022-08-26T06:13:58.981Z,8.80
2022-08-26T06:16:30.097Z,7.77
2022-08-26T06:18:56.764Z,7.60
2022-08-26T06:21:34.997Z,8.53
2022-08-26T06:24:26.935Z,8.70
2022-08-26T06:26:57.142Z,9.10
2022-08-26T06:29:25.762Z,8.10
2022-08-26T06:31:53.891Z,8.77
2022-08-26T06:34:20.755Z,8.83
2022-08-26T06:36:49.313Z,8.37
2022-08-26T06:39:19.731Z,7.60
2022-08-26T06:41:47.633Z,7.57
2022-08-26T06:44:15.759Z,7.23
2022-08-26T06:46:44.182Z,10.83
2022-08-26T06:49:11.640Z,8.00
2022-08-26T06:51:40.785Z,9.80
2022-08-26T06:54:08.128Z,9.17
2022-08-26T06:56:41.661Z,9.00
2022-08-26T06:59:09.866Z,8.57
2022-08-26T07:01:45.354Z,8.03
2022-08-26T07:04:15.743Z,8.57
2022-08-26T07:06:48.725Z,8.10
2022-08-26T07:09:16.779Z,8.63
2022-08-26T07:11:44.490Z,6.77
2022-08-26T07:14:12.154Z,8.90
2022-08-26T07:16:41.123Z,7.13
2022-08-26T07:19:11.206Z,8.60
2022-08-26T07:25:13.550Z,8.33
2022-08-26T07:27:40.194Z,7.23
2022-08-26T07:30:07.906Z,7.60
2022-08-26T07:32:34.719Z,7.90
2022-08-26T07:35:01.421Z,10.17
2022-08-26T07:37:28.267Z,7.43
2022-08-26T07:39:58.063Z,8.00
2022-08-26T07:42:24.819Z,9.30
2022-08-26T07:44:52.241Z,7.30
2022-08-26T07:47:25.147Z,9.00
2022-08-26T07:49:54.853Z,8.00
2022-08-26T07:52:26.354Z,9.80
2022-08-26T07:54:54.259Z,9.30
2022-08-26T07:57:21.100Z,7.63
2022-08-26T07:59:47.803Z,7.83
2022-08-26T08:02:14.557Z,8.10
2022-08-26T08:04:41.385Z,8.77
2022-08-26T08:07:11.556Z,8.00
2022-08-26T08:09:40.627Z,9.13
2022-08-26T08:12:07.833Z,8.33
2022-08-26T08:14:40.938Z,9.40
2022-08-26T08:17:08.694Z,8.83
2022-08-26T08:19:36.993Z,10.10
2022-08-26T08:22:13.314Z,8.93
2022-08-26T08:24:44.713Z,8.93
2022-08-26T08:27:11.449Z,8.53
2022-08-26T08:29:38.837Z,9.00
2022-08-26T08:32:05.753Z,9.33
2022-08-26T08:34:38.279Z,9.40
2022-08-26T08:37:08.636Z,10.77
2022-08-26T08:39:37.720Z,9.63
2022-08-26T08:42:27.023Z,7.97
2022-08-26T08:44:59.672Z,9.50
2022-08-26T08:47:39.133Z,8.77
2022-08-26T08:50:35.035Z,9.10
2022-08-26T08:53:16.479Z,8.30
2022-08-26T08:55:56.673Z,9.00
2022-08-26T08:58:34.159Z,8.30
2022-08-26T09:01:04.948Z,8.40
2022-08-26T09:03:45.534Z,9.63
2022-08-26T09:06:18.614Z,8.90
2022-08-26T09:08:50.493Z,8.30
2022-08-26T09:11:19.009Z,8.70
2022-08-26T09:13:53.349Z,8.57
2022-08-26T09:17:05.301Z,9.60
2022-08-26T09:19:51.172Z,10.57
2022-08-26T09:22:37.090Z,9.90
2022-08-26T09:25:08.035Z,8.23
2022-08-26T09:27:45.188Z,10.07
2022-08-26T09:30:35.274Z,7.87
2022-08-26T09:33:10.116Z,7.50
2022-08-26T09:35:40.655Z,8.23
2022-08-26T09:38:32.778Z,8.70
2022-08-26T09:41:06.032Z,11.20
2022-08-26T09:43:35.498Z,10.20
2022-08-26T09:46:23.189Z,9.03
2022-08-26T09:48:51.663Z,9.77
2022-08-26T09:51:26.497Z,10.03
2022-08-26T09:54:02.012Z,8.17
2022-08-26T09:56:34.235Z,8.70
2022-08-26T09:59:02.288Z,8.93
2022-08-26T10:01:30.161Z,7.40
2022-08-26T10:04:14.965Z,8.40
2022-08-26T10:07:00.343Z,8.00
2022-08-26T10:09:29.878Z,8.60
2022-08-26T10:12:00.935Z,9.17
2022-08-26T10:14:50.085Z,9.30
2022-08-26T10:17:27.273Z,10.00
2022-08-26T10:20:23.590Z,8.43
2022-08-26T10:22:56.587Z,9.73
2022-08-26T10:25:35.770Z,8.70
2022-08-26T10:28:21.656Z,8.90
2022-08-26T10:30:58.202Z,9.10
2022-08-26T10:33:25.324Z,9.10
2022-08-26T10:35:53.588Z,9.70
2022-08-26T10:38:29.378Z,11.70
2022-08-26T10:41:09.999Z,8.20
2022-08-26T10:43:42.647Z,10.67
2022-08-26T10:46:17.150Z,8.77
2022-08-26T10:48:52.954Z,8.00
2022-08-26T10:51:25.495Z,9.43
2022-08-26T10:54:06.619Z,8.40
2022-08-26T10:56:38.323Z,8.10
2022-08-26T10:59:29.417Z,10.20
2022-08-26T11:02:15.416Z,7.43
2022-08-26T11:04:53.065Z,9.20
2022-08-26T11:07:51.323Z,9.17
2022-08-26T11:10:21.293Z,7.77
2022-08-26T11:12:51.515Z,8.20
2022-08-26T11:15:20.238Z,10.07
2022-08-26T11:17:51.598Z,8.67
2022-08-26T11:20:41.512Z,8.10
2022-08-26T11:23:21.218Z,8.33
2022-08-26T11:26:12.780Z,9.30
2022-08-26T11:28:55.326Z,8.07
2022-08-26T11:31:25.299Z,9.60
2022-08-26T11:34:00.299Z,8.20
2022-08-26T11:36:45.337Z,8.90
2022-08-26T11:39:21.334Z,7.87
2022-08-26T11:41:52.931Z,7.53
2022-08-26T11:44:23.361Z,8.00
2022-08-26T11:47:11.650Z,6.80
2022-08-26T11:49:38.887Z,6.70
2022-08-26T11:52:15.622Z,6.60
2022-08-26T11:55:06.997Z,6.47
2022-08-26T11:57:35.986Z,6.23
2022-08-26T12:00:03.985Z,7.43
2022-08-26T12:02:32.505Z,7.47
2022-08-26T12:05:00.464Z,6.80
2022-08-26T12:07:29.229Z,7.30
2022-08-26T12:10:02.108Z,7.97
2022-08-26T12:12:42.419Z,7.07
2022-08-26T12:15:10.676Z,8.87
2022-08-26T12:17:38.689Z,8.40
2022-08-26T12:20:06.577Z,7.27
2022-08-26T12:22:34.971Z,8.50
2022-08-26T12:25:08.465Z,8.10
2022-08-26T12:27:41.519Z,8.27
2022-08-26T12:30:12.192Z,7.60
2022-08-26T12:32:57.486Z,7.40
2022-08-26T12:35:25.325Z,8.43
2022-08-26T12:37:53.805Z,8.17
2022-08-26T12:40:41.586Z,7.70
2022-08-26T12:43:10.137Z,7.03
2022-08-26T12:46:06.482Z,8.37
2022-08-26T12:48:36.208Z,6.97
2022-08-26T12:51:06.054Z,6.90
2022-08-26T12:53:34.729Z,7.20
2022-08-26T12:56:04.604Z,7.10
2022-08-26T12:58:36.811Z,7.80
2022-08-26T13:01:06.852Z,8.30
2022-08-26T13:03:45.651Z,7.50
2022-08-26T13:06:24.038Z,8.00
2022-08-26T13:08:57.655Z,8.50
2022-08-26T13:11:31.769Z,7.70
2022-08-26T13:14:21.185Z,7.77
2022-08-26T13:16:51.585Z,7.40
2022-08-26T13:19:22.037Z,7.80
2022-08-26T13:21:57.603Z,7.73
2022-08-26T13:24:34.687Z,7.90
2022-08-26T13:27:02.817Z,8.10
2022-08-26T13:29:29.570Z,7.33
2022-08-26T13:31:58.653Z,7.60
2022-08-26T13:34:25.493Z,8.23
2022-08-26T13:36:54.674Z,8.10
2022-08-26T13:39:22.464Z,8.57
2022-08-26T13:41:49.826Z,8.10
2022-08-26T13:44:16.750Z,8.50
2022-08-26T13:49:15.822Z,9.00
2022-08-26T13:51:42.552Z,8.67
2022-08-26T13:54:09.433Z,9.43
2022-08-26T13:56:37.388Z,7.77
2022-08-26T13:59:05.546Z,9.47
2022-08-26T14:01:35.022Z,9.00
2022-08-26T14:04:02.965Z,9.50
2022-08-26T14:06:29.979Z,8.77
2022-08-26T14:08:56.831Z,9.50
2022-08-26T14:11:24.831Z,10.10
2022-08-26T14:13:51.735Z,8.63
2022-08-26T14:16:25.380Z,9.33
2022-08-26T14:18:52.837Z,8.70
2022-08-26T14:21:19.748Z,10.00
2022-08-26T14:23:46.541Z,9.53
2022-08-26T14:26:19.039Z,10.73
2022-08-26T14:28:56.421Z,9.70
2022-08-26T14:31:23.772Z,8.83
2022-08-26T14:33:50.763Z,10.67
2022-08-26T14:36:31.227Z,9.53
2022-08-26T14:39:10.081Z,8.53
2022-08-26T14:41:56.485Z,10.20
2022-08-26T14:44:31.119Z,9.90
2022-08-26T14:47:01.003Z,10.40
2022-08-26T14:49:28.063Z,8.57
2022-08-26T14:51:55.388Z,9.47
2022-08-26T14:54:22.155Z,10.23
2022-08-26T14:56:48.839Z,9.30
2022-08-26T14:59:22.165Z,7.60
2022-08-26T15:01:49.590Z,7.37
2022-08-26T15:04:16.353Z,8.03
2022-08-26T15:06:43.246Z,7.73
2022-08-26T15:09:10.453Z,8.53
2022-08-26T15:11:37.533Z,8.17
2022-08-26T15:14:04.802Z,7.10
2022-08-26T15:16:32.348Z,6.90
2022-08-26T15:19:00.778Z,7.50
2022-08-26T15:21:27.413Z,7.13
2022-08-26T15:23:54.203Z,7.23
2022-08-26T15:26:21.403Z,6.80
2022-08-26T15:28:48.249Z,6.67
2022-08-26T15:31:15.598Z,5.90
2022-08-26T15:33:42.662Z,7.27
2022-08-26T15:36:09.977Z,7.50
2022-08-26T15:38:39.678Z,6.23
2022-08-26T15:41:08.610Z,6.47
2022-08-26T15:43:37.238Z,7.60
2022-08-26T15:46:04.759Z,5.47
2022-08-26T15:48:31.478Z,6.27
2022-08-26T15:51:00.858Z,6.43
2022-08-26T15:53:30.359Z,5.87
2022-08-26T15:55:58.167Z,5.73
2022-08-26T15:58:26.445Z,5.63
2022-08-26T16:00:54.925Z,5.57
2022-08-26T16:03:22.523Z,5.03
2022-08-26T16:05:49.406Z,6.33
2022-08-26T16:08:17.633Z,4.90
2022-08-26T16:10:50.029Z,4.40
2022-08-26T16:13:19.682Z,4.57
2022-08-26T16:15:47.823Z,5.00
2022-08-26T16:18:15.599Z,4.20
2022-08-26T16:21:02.716Z,4.40
2022-08-26T16:23:40.947Z,3.97
2022-08-26T16:26:18.912Z,4.50
2022-08-26T16:28:46.795Z,4.83
2022-08-26T16:31:14.835Z,4.63
2022-08-26T16:33:41.773Z,4.97
2022-08-26T16:36:09.341Z,4.60
2022-08-26T16:38:37.536Z,4.10
2022-08-26T16:41:05.378Z,4.07
2022-08-26T16:43:32.253Z,5.97
2022-08-26T16:45:59.071Z,5.73
2022-08-26T16:48:27.030Z,5.10
2022-08-26T16:50:55.430Z,4.77
2022-08-26T16:53:22.955Z,5.33
2022-08-26T16:55:50.573Z,5.00
2022-08-26T16:58:17.927Z,3.70
2022-08-26T17:00:45.198Z,4.37
2022-08-26T17:03:12.066Z,4.00
2022-08-26T17:05:39.131Z,4.13
2022-08-26T17:08:06.578Z,4.50
2022-08-26T17:10:33.984Z,4.10
2022-08-26T17:13:01.024Z,5.77
2022-08-26T17:15:28.385Z,5.30
2022-08-26T17:17:56.568Z,5.47
2022-08-26T17:20:24.167Z,5.80
2022-08-26T17:22:53.529Z,6.10
2022-08-26T17:25:26.543Z,6.43
2022-08-26T17:27:53.343Z,6.00
2022-08-26T17:30:21.479Z,5.90
2022-08-26T17:32:49.188Z,6.43
2022-08-26T17:35:16.831Z,7.90
2022-08-26T17:37:44.312Z,7.50
2022-08-26T17:40:15.426Z,6.10
2022-08-26T17:42:42.641Z,7.10
2022-08-26T17:45:10.169Z,6.70
2022-08-26T17:47:37.625Z,5.90
2022-08-26T17:50:06.106Z,6.53
2022-08-26T17:52:32.870Z,5.80
2022-08-26T17:54:59.515Z,6.77
2022-08-26T17:57:26.569Z,6.30
2022-08-26T17:59:53.849Z,7.50
2022-08-26T18:02:21.087Z,6.40
2022-08-26T18:04:48.483Z,7.10
2022-08-26T18:07:15.951Z,6.90
2022-08-26T18:09:42.844Z,7.33
2022-08-26T18:12:09.785Z,6.20
2022-08-26T18:14:36.581Z,6.83
2022-08-26T18:17:04.131Z,7.10
2022-08-26T18:19:31.344Z,7.40
2022-08-26T18:21:58.578Z,7.70
2022-08-26T18:24:25.402Z,8.30
2022-08-26T18:26:52.272Z,8.43
2022-08-26T18:29:19.828Z,8.13
2022-08-26T18:31:46.898Z,7.90
2022-08-26T18:34:15.448Z,8.53
2022-08-26T18:36:43.696Z,8.40
2022-08-26T18:39:12.941Z,8.07
2022-08-26T18:41:45.699Z,8.93
2022-08-26T18:44:14.404Z,8.73
2022-08-26T18:46:42.115Z,8.80
2022-08-26T18:49:10.786Z,10.27
2022-08-26T18:51:37.920Z,8.03
2022-08-26T18:54:06.737Z,9.40
2022-08-26T18:56:36.190Z,7.20
2022-08-26T18:59:04.674Z,8.60
2022-08-26T19:01:31.838Z,9.43
2022-08-26T19:04:01.211Z,7.93
2022-08-26T19:06:32.682Z,7.87
2022-08-26T19:09:00.022Z,9.53
2022-08-26T19:11:32.557Z,9.23
2022-08-26T19:14:07.126Z,9.30
2022-08-26T19:16:34.120Z,8.80
2022-08-26T19:19:01.881Z,10.57
2022-08-26T19:21:29.392Z,11.13
2022-08-26T19:23:58.912Z,11.07
2022-08-26T19:26:27.083Z,8.93
2022-08-26T19:28:53.862Z,9.10
2022-08-26T19:31:20.735Z,9.30
2022-08-26T19:33:47.522Z,9.87
2022-08-26T19:36:21.784Z,9.77
2022-08-26T19:38:48.896Z,9.50
2022-08-26T19:41:24.565Z,9.77
2022-08-26T19:43:55.705Z,9.30
2022-08-26T19:46:26.623Z,9.90
2022-08-26T19:48:55.722Z,9.80
2022-08-26T19:51:25.952Z,10.50
2022-08-26T19:53:54.740Z,10.63
2022-08-26T19:56:22.285Z,9.80
2022-08-26T19:58:50.343Z,9.97
2022-08-26T20:01:18.574Z,9.23
2022-08-26T20:03:46.140Z,9.47
2022-08-26T20:06:15.509Z,8.97
2022-08-26T20:08:43.208Z,9.30
2022-08-26T20:11:15.138Z,9.30
2022-08-26T20:13:42.750Z,8.20
2022-08-26T20:16:11.797Z,8.87
2022-08-26T20:18:59.023Z,9.57
2022-08-26T20:21:26.222Z,9.50
2022-08-26T20:24:03.308Z,8.43
2022-08-26T20:26:32.053Z,8.90
2022-08-26T20:28:59.101Z,9.20
2022-08-26T20:31:26.439Z,9.37
2022-08-26T20:33:54.101Z,10.57
2022-08-26T20:36:22.740Z,9.90
2022-08-26T20:38:50.403Z,9.30
2022-08-26T20:41:17.865Z,9.37
2022-08-26T20:43:46.215Z,9.40
2022-08-26T20:46:18.190Z,10.97
2022-08-26T20:48:46.663Z,9.77
2022-08-26T20:51:13.433Z,11.00
2022-08-26T20:53:41.238Z,10.90
2022-08-26T20:56:09.672Z,10.10
2022-08-26T20:58:37.102Z,9.87
2022-08-26T21:01:07.785Z,9.73
2022-08-26T21:03:35.816Z,9.50
2022-08-26T21:06:03.515Z,10.00
2022-08-26T21:08:30.547Z,10.17
2022-08-26T21:11:00.504Z,8.93
2022-08-26T21:13:27.300Z,8.40
2022-08-26T21:15:57.877Z,10.53
2022-08-26T21:18:24.618Z,8.80
2022-08-26T21:20:54.211Z,9.40
2022-08-26T21:23:21.062Z,9.50
2022-08-26T21:25:49.533Z,9.30
2022-08-26T21:28:16.941Z,9.10
2022-08-26T21:30:43.918Z,9.70
2022-08-26T21:33:10.714Z,9.83
2022-08-26T21:35:37.474Z,9.57
2022-08-26T21:38:04.140Z,10.40
2022-08-26T21:40:30.918Z,9.20
2022-08-26T21:42:57.657Z,10.10
2022-08-26T21:45:24.383Z,10.80
2022-08-26T21:47:51.318Z,11.77
2022-08-26T21:50:18.083Z,12.63
2022-08-26T21:52:44.715Z,10.93
2022-08-26T21:55:11.896Z,11.20
2022-08-26T21:57:38.879Z,9.80
2022-08-26T22:00:08.890Z,9.90
2022-08-26T22:02:36.966Z,11.17
2022-08-26T22:05:04.591Z,11.57
2022-08-26T22:07:31.391Z,10.70
2022-08-26T22:09:58.093Z,10.73
2022-08-26T22:12:25.282Z,10.47
2022-08-26T22:14:51.975Z,10.30
2022-08-26T22:17:18.780Z,10.77
2022-08-26T22:19:46.176Z,10.83
2022-08-26T22:22:14.327Z,10.27
2022-08-26T22:24:43.169Z,10.90
2022-08-26T22:27:11.879Z,11.00
2022-08-26T22:29:38.915Z,10.90
2022-08-26T22:32:06.291Z,10.17
2022-08-26T22:34:33.310Z,10.57
2022-08-26T22:37:00.022Z,10.93
2022-08-26T22:39:26.834Z,8.90
2022-08-26T22:41:54.362Z,10.17
2022-08-26T22:44:22.464Z,9.63
2022-08-26T22:46:52.886Z,10.73
2022-08-26T22:49:20.074Z,9.90
2022-08-26T22:51:47.167Z,10.57
2022-08-26T22:54:15.084Z,9.77
2022-08-26T22:56:42.412Z,9.73
2022-08-26T22:59:10.550Z,12.20
2022-08-26T23:01:39.932Z,9.87
2022-08-26T23:04:08.092Z,9.80
2022-08-26T23:06:36.962Z,10.77
2022-08-26T23:09:04.895Z,11.63
2022-08-26T23:11:31.948Z,10.67
2022-08-26T23:13:58.706Z,10.53
2022-08-26T23:16:28.217Z,10.47
2022-08-26T23:19:03.999Z,10.40
2022-08-26T23:21:31.005Z,11.57
2022-08-26T23:23:57.645Z,11.20
2022-08-26T23:26:24.442Z,12.00
2022-08-26T23:28:51.081Z,12.87
2022-08-26T23:31:17.786Z,10.70
2022-08-26T23:34:03.390Z,13.43
2022-08-26T23:36:30.798Z,11.90
2022-08-26T23:38:59.018Z,12.10
2022-08-26T23:41:25.978Z,12.70
2022-08-26T23:43:52.613Z,12.13
2022-08-26T23:46:19.892Z,13.13
2022-08-26T23:48:47.225Z,10.77
2022-08-26T23:51:33.061Z,11.87
2022-08-26T23:53:59.947Z,11.80
2022-08-26T23:56:26.915Z,11.40
2022-08-26T23:58:54.483Z,10.53
